Weather observations for the past three days for
Concord, Buchanan Field
Metric (Imperial)
Date Time (pdt) Wind (kph) Vis. (km) Weather Sky Cond. Temperature (ºC) Relative Humidity Wind Chill (°C) Heat Index (°C) Pressure Precipitation (cm)
Air Dwpt 6 hour altimeter (cm) sea level (mb) 1 hr 3 hr 6 hr
Max. Min.
02 09:53 S 17 16.09 Mostly Cloudy BKN032 BKN040 20.6 12.2 59% 76.3 1015.8
02 08:53 S 15 16.09 A Few Clouds FEW043 19.4 11.1 59% 76.3 1015.7
02 07:53 SW 6 16.09 Partly Cloudy SCT040 17.2 11.1 68% 76.28 1015.4
02 06:53 S 11 16.09 Mostly Cloudy BKN070 16.7 11.7 73% 76.25 1015.0
02 05:53 SW 15 16.09 Overcast FEW044 OVC075 16.7 12.2 75% 76.23 1014.7
02 04:53 S 11 16.09 Partly Cloudy SCT049 16.7 12.8 17.2 15.6 78% 76.23 1014.7
02 03:53 SE 6 16.09 Mostly Cloudy BKN085 17.2 12.8 76% 76.25 1015.1
02 02:53 S 6 16.09 Mostly Cloudy FEW050 BKN085 16.7 12.8 78% 76.25 1015.2
02 01:53 E 7 16.09 Fair CLR 15.6 12.8 84% 76.25 1015.0
02 00:53 S 7 16.09 Fair CLR 16.7 12.8 78% 76.25 1015.1
01 23:53 SW 15 16.09 Fair CLR 17.2 12.8 76% 76.23 1014.9
01 22:53 S 7 16.09 Mostly Cloudy BKN110 17.2 12.2 21.7 17.2 73% 76.25 1015.0
01 21:53 SW 11 16.09 A Few Clouds FEW110 17.2 12.2 73% 76.25 1015.3
01 20:53 SW 13 16.09 Fair CLR 17.8 12.2 70% 76.23 1014.9
01 19:53 SW 26 16.09 Fair CLR 17.8 12.2 70% 76.2 1014.4
01 18:53 W 22 16.09 Fair CLR 19.4 10 55% 76.17 1014.1
01 17:53 SW 28 16.09 Fair CLR 20.6 10 51% 76.15 1013.8
01 16:53 SW 20 G 37 16.09 Fair CLR 21.1 9.4 22.8 20.6 47% 76.15 1013.9
01 15:53 W 24 G 35 16.09 Partly Cloudy SCT047 22.2 8.9 43% 76.17 1014.1
01 14:53 SW 22 G 39 16.09 Partly Cloudy SCT047 22.8 8.3 40% 76.17 1014.3
01 13:53 SW 22 16.09 Mostly Cloudy BKN047 22.2 9.4 44% 76.2 1014.4
01 12:53 SW 15 16.09 Mostly Cloudy BKN050 21.1 8.3 44% 76.23 1014.7
01 11:53 S 17 16.09 Overcast FEW039 OVC047 21.1 8.3 44% 76.23 1014.9
01 10:53 SW 20 G 31 16.09 Overcast FEW039 OVC048 20 10 20.6 16.7 53% 76.23 1014.8
01 09:53 SW 20 16.09 Mostly Cloudy SCT034 BKN046 19.4 10.6 57% 76.2 1014.4
01 08:53 SW 17 16.09 Mostly Cloudy BKN044 18.9 11.1 61% 76.17 1014.1
01 07:53 SW 15 16.09 Mostly Cloudy BKN041 17.8 11.7 68% 76.12 1013.5
01 06:53 SW 17 16.09 Mostly Cloudy BKN039 16.7 11.7 73% 76.07 1012.9
01 05:53 SW 15 16.09 Overcast OVC036 17.2 11.1 68% 76.05 1012.5
01 04:53 S 15 16.09 Mostly Cloudy BKN036 16.7 12.2 17.2 16.7 75% 76.02 1012.1
01 03:53 SW 13 16.09 Mostly Cloudy BKN035 16.7 11.7 73% 76.05 1012.4
01 02:53 SW 20 16.09 Mostly Cloudy BKN033 17.2 10.6 65% 76 1011.8
01 01:53 SW 20 16.09 Overcast OVC028 17.2 11.1 68% 76.02 1012.2
01 00:53 SW 20 16.09 Overcast OVC027 17.2 11.1 68% 76.02 1012.1
31 23:53 SW 20 16.09 Overcast OVC026 16.7 11.1 70% 76.02 1012.0
31 22:53 SW 22 16.09 Overcast OVC028 16.7 10.6 18.9 16.7 67% 76.02 1012.2
31 21:53 SW 26 16.09 Partly Cloudy SCT026 16.7 10.6 67% 76.02 1012.2
31 20:53 SW 26 16.09 Overcast OVC024 17.2 11.1 68% 76 1011.8
31 19:53 SW 22 16.09 Mostly Cloudy BKN025 17.2 11.1 68% 75.95 1011.2
31 18:53 SW 22 16.09 Overcast OVC025 17.8 11.1 65% 75.95 1011.2
31 17:53 SW 24 16.09 Mostly Cloudy BKN025 18.3 11.7 66% 75.95 1011.2
31 16:53 SW 26 16.09 Mostly Cloudy BKN025 18.9 11.7 21.1 18.3 63% 75.97 1011.4
31 15:53 SW 30 G 41 16.09 A Few Clouds FEW027 20 11.7 59% 75.97 1011.5
31 14:53 W 33 G 48 16.09 A Few Clouds and Breezy FEW021 20 11.7 59% 76 1011.9
31 13:53 S 30 G 43 16.09 Fair CLR 20.6 11.7 57% 76.02 1012.2
31 12:53 SW 31 G 43 16.09 A Few Clouds FEW021 20.6 11.7 57% 76.02 1012.3
31 11:53 S 30 16.09 Fair CLR 19.4 11.7 61% 76.05 1012.5
31 10:53 S 33 16.09 Mostly Cloudy and Breezy BKN016 18.3 11.7 18.3 14.4 66% 76.05 1012.5
31 09:53 S 30 G 41 16.09 Mostly Cloudy BKN017 16.7 11.7 73% 76.02 1012.1
31 08:53 S 28 16.09 Mostly Cloudy BKN017 15.6 11.1 75% 76 1011.8
31 07:53 S 24 G 35 16.09 Partly Cloudy SCT017 15 11.1 78% 76 1011.7
31 06:53 S 24 G 37 16.09 Partly Cloudy SCT016 15 11.1 78% 75.95 1011.0
31 05:53 S 22 16.09 Fair CLR 14.4 11.1 81% 75.92 1010.6
31 04:53 S 22 G 37 16.09 Fair CLR 15 11.1 16.1 15 78% 75.87 1010.2
31 03:53 S 22 16.09 Fair CLR 15 11.7 81% 75.87 1010.1
31 02:53 S 19 G 35 16.09 Fair CLR 15 11.7 81% 75.87 1009.9
31 01:53 S 22 16.09 Fair CLR 15.6 12.2 80% 75.84 1009.8
31 00:53 S 28 16.09 Fair CLR 15.6 11.7 78% 75.87 1010.1
30 23:53 S 22 16.09 Fair CLR 15.6 11.7 78% 75.9 1010.3
30 22:53 S 22 16.09 Fair CLR 16.1 11.1 29.4 16.1 72% 75.87 1010.1
30 21:53 S 20 16.09 Fair CLR 18.3 11.1 63% 75.87 1010.2
30 20:53 S 9 16.09 Fair CLR 20.6 10 51% 75.84 1009.9
30 19:53 SW 15 16.09 Fair CLR 21.7 10.6 49% 75.82 1009.4
30 18:53 W 19 16.09 Fair CLR 24.4 8.9 37% 25 75.79 1009.1
30 17:53 SW 19 16.09 Fair CLR 27.2 5.6 25% 26 75.79 1009.1
30 16:53 S 17 16.09 Fair CLR 28.9 6.7 29.4 21.1 25% 28 75.79 1009.1
30 15:53 SW 15 16.09 Fair CLR 28.9 8.9 29% 28 75.82 1009.6
30 14:53 NW 17 G 31 16.09 Fair CLR 27.8 12.2 38% 27 75.9 1010.3
30 13:53 SW 7 16.09 Fair CLR 26.7 10.6 37% 26 75.92 1011.0
30 12:53 S 15 16.09 Fair CLR 25 10.6 40% 26 76 1011.7
30 11:53 S 13 16.09 Fair CLR 22.8 10.6 46% 76.02 1012.3
30 10:53 S 15 16.09 Fair CLR 21.1 11.1 21.1 14.4 53% 76.05 1012.5
Date Time (pdt) Wind (kph) Vis. (km) Weather Sky Cond. Air Dwpt Max. Min. Relative Humidity Wind Chill (°C) Heat Index (°C) altimeter (cm) sea level (mb) 1 hr 3 hr 6 hr
6 hour
Temperature (ºC) Pressure Precipitation (cm)